Terminal Aerodrome Forecast
Issued by NWS

Home | Current Version | Previous Version | Graphics & Text | Print | Product List | Glossary On
Versions: 1 2 3 4 5 6 7 8 9 10 11 12 13 14 15
685
FTUS43 KOAX 212320
TAFCDR
TAF
KCDR 212320Z 2200/2224 18008KT P6SM SCT100
     FM220600 23004KT P6SM SKC
     FM221500 11010KT P6SM SCT100
     FM221900 13015G25KT P6SM BKN080=

USA.gov is the U.S. government's official web portal to all federal, state and local government web resources and services.